Time;durP1;ratioP1;P1;durP2;ratioP2;P2;SDS_P1;SDS_P2;PMS_P1;PMS_P2;Temp;Humidity;BMP_temperature;BMP_pressure;BME280_temperature;BME280_humidity;BME280_pressure;Samples;Min_cycle;Max_cycle;Signal;HPM_P1;HPM_P2
2021/08/20 15:07:20;;;;;;;7.85;3.55;;;26.10;57.70;;;;;;3681670;22;20720;-82
2021/08/20 15:09:49;;;;;;;5.70;3.15;;;25.50;58.50;;;;;;3600322;39;20395;-83
2021/08/20 15:12:19;;;;;;;5.00;3.60;;;25.50;58.80;;;;;;3608846;39;20080;-83
2021/08/20 15:14:47;;;;;;;5.18;3.30;;;26.10;58.10;;;;;;3591705;39;20075;-82
2021/08/20 15:17:15;;;;;;;6.60;3.50;;;28.00;54.80;;;;;;3590287;39;20104;-81
2021/08/20 15:19:43;;;;;;;6.90;3.10;;;29.50;52.20;;;;;;3599418;39;20087;-83
2021/08/20 15:22:13;;;;;;;6.65;3.70;;;31.30;50.10;;;;;;3589964;39;20068;-81
2021/08/20 15:24:45;;;;;;;6.57;3.08;;;32.50;47.80;;;;;;3598115;39;20175;-83
2021/08/20 15:27:21;;;;;;;4.63;2.95;;;32.20;47.20;;;;;;3588439;40;20077;-83
2021/08/20 15:29:48;;;;;;;4.55;3.33;;;32.30;46.80;;;;;;3576174;40;20081;-83
2021/08/20 15:32:16;;;;;;;5.10;3.25;;;31.80;47.10;;;;;;3567999;40;20088;-82
2021/08/20 15:34:44;;;;;;;5.30;3.53;;;31.20;48.20;;;;;;3568476;40;20060;-82
2021/08/20 15:37:12;;;;;;;;;;;31.00;48.90;;;;;;3568857;40;20092;-82
2021/08/20 15:39:40;;;;;;;6.10;3.80;;;30.80;49.10;;;;;;3559739;40;20395;-81
2021/08/20 15:42:08;;;;;;;7.03;4.10;;;30.30;49.70;;;;;;3567769;40;20425;-83
2021/08/20 15:45:01;;;;;;;7.10;3.40;;;29.60;50.60;;;;;;3558859;40;20097;-82
2021/08/20 15:47:29;;;;;;;6.57;3.72;;;29.10;51.80;;;;;;3570386;40;20081;-79
2021/08/20 15:50:00;;;;;;;6.15;3.53;;;28.90;51.80;;;;;;3569207;40;20096;-83
2021/08/20 15:52:31;;;;;;;6.40;3.80;;;28.80;52.70;;;;;;3580783;40;20069;-81
2021/08/20 15:55:00;;;;;;;5.38;3.55;;;28.70;52.60;;;;;;3593379;40;20057;-81
2021/08/20 15:57:29;;;;;;;7.25;3.80;;;28.30;53.20;;;;;;3594722;39;20080;-82
2021/08/20 16:00:02;;;;;;;8.15;3.42;;;28.00;54.00;;;;;;3578835;40;20088;-82
2021/08/20 16:02:32;;;;;;;5.05;3.60;;;27.60;54.50;;;;;;3587041;40;20367;-82
2021/08/20 16:05:02;;;;;;;8.88;3.88;;;27.40;55.00;;;;;;3581771;40;20061;-81
2021/08/20 16:07:34;;;;;;;6.55;3.63;;;27.00;55.60;;;;;;3597584;39;20075;-82
2021/08/20 16:10:05;;;;;;;4.97;3.40;;;26.70;56.70;;;;;;3607315;39;20078;-83
2021/08/20 16:12:32;;;;;;;5.60;3.33;;;26.50;56.60;;;;;;3608657;39;20058;-82
2021/08/20 16:15:02;;;;;;;5.72;3.60;;;26.30;56.30;;;;;;3595363;39;20087;-81
2021/08/20 16:17:36;;;;;;;5.05;3.55;;;26.00;56.10;;;;;;3610054;39;20102;-85
2021/08/20 16:20:07;;;;;;;5.95;3.58;;;25.70;56.60;;;;;;3586475;40;20087;-80
2021/08/20 16:22:38;;;;;;;8.75;4.07;;;25.40;57.30;;;;;;3588966;39;20089;-83
2021/08/20 16:25:08;;;;;;;6.10;4.10;;;25.40;57.50;;;;;;3591644;40;20032;-84
2021/08/20 16:27:36;;;;;;;6.22;3.92;;;25.30;57.90;;;;;;3575465;40;20091;-82
2021/08/20 16:30:07;;;;;;;6.70;3.58;;;25.40;57.30;;;;;;3572962;40;20061;-81
2021/08/20 17:02:46;;;;;;;7.45;3.80;;;29.90;50.10;;;;;;3472239;41;20085;-82
2021/08/20 17:05:47;;;;;;;5.68;3.72;;;29.20;50.60;;;;;;3485304;41;20110;-80
2021/08/20 17:08:30;;;;;;;9.20;4.63;;;28.00;52.30;;;;;;3491752;41;20077;-83
2021/08/20 17:10:58;;;;;;;11.30;5.35;;;27.10;53.90;;;;;;3478587;41;20097;-82
2021/08/20 17:13:26;;;;;;;6.50;4.67;;;26.40;55.30;;;;;;3476878;41;20433;-81
2021/08/20 17:15:58;;;;;;;6.95;4.15;;;25.70;56.50;;;;;;3479317;41;20858;-87
2021/08/20 17:18:31;;;;;;;10.52;4.45;;;25.20;57.80;;;;;;3475515;41;20077;-80
2021/08/20 17:21:06;;;;;;;6.10;3.65;;;24.80;59.00;;;;;;3488814;41;20089;-80
2021/08/20 17:23:34;;;;;;;7.35;3.78;;;24.40;60.00;;;;;;3499468;41;20400;-82
2021/08/20 17:26:03;;;;;;;7.53;4.22;;;24.20;60.80;;;;;;3515948;40;20090;-82
2021/08/20 17:28:34;;;;;;;7.32;4.90;;;24.00;61.40;;;;;;3512133;40;20294;-83
2021/08/20 17:31:01;;;;;;;9.10;3.47;;;23.90;61.90;;;;;;3511586;40;20064;-83
2021/08/20 17:33:32;;;;;;;5.27;3.70;;;23.90;61.40;;;;;;3518568;40;20650;-83
2021/08/20 17:36:49;;;;;;;5.65;3.72;;;23.80;61.90;;;;;;3526039;40;20312;-84
2021/08/20 17:40:06;;;;;;;8.03;3.93;;;23.70;62.10;;;;;;3548890;40;20099;-82
2021/08/20 17:42:33;;;;;;;5.90;3.80;;;23.60;63.00;;;;;;3548939;40;20082;-84
2021/08/20 17:45:01;;;;;;;8.70;3.80;;;23.60;63.30;;;;;;3556011;40;20030;-82
2021/08/20 17:47:29;;;;;;;8.13;3.80;;;23.50;63.40;;;;;;3531403;40;20335;-83
2021/08/20 17:50:01;;;;;;;5.87;3.70;;;23.50;63.50;;;;;;3553209;40;20101;-83
2021/08/20 17:52:29;;;;;;;6.18;3.30;;;23.40;63.90;;;;;;3557402;40;20328;-82
2021/08/20 17:54:58;;;;;;;6.70;3.95;;;23.20;64.30;;;;;;3549354;40;20097;-82
2021/08/20 17:57:26;;;;;;;7.43;4.45;;;23.10;64.50;;;;;;3565834;40;20289;-82
2021/08/20 17:59:54;;;;;;;7.57;3.97;;;22.90;65.00;;;;;;3540928;40;20081;-82
2021/08/20 18:02:22;;;;;;;9.85;4.20;;;22.80;65.60;;;;;;3545680;40;20340;-83
2021/08/20 18:04:52;;;;;;;6.50;4.30;;;22.60;66.20;;;;;;3550389;40;20073;-83
2021/08/20 18:07:21;;;;;;;9.63;4.00;;;22.50;67.00;;;;;;3596493;40;20319;-82
2021/08/20 18:09:49;;;;;;;7.13;4.30;;;22.30;67.30;;;;;;3573707;39;20075;-82
2021/08/20 18:12:16;;;;;;;8.23;4.18;;;22.20;67.80;;;;;;3606940;39;20063;-82
2021/08/20 18:14:44;;;;;;;7.70;4.30;;;22.10;68.20;;;;;;3594942;39;20086;-85
2021/08/20 18:17:15;;;;;;;8.70;5.70;;;22.30;68.10;;;;;;3622703;39;20071;-83
2021/08/20 18:19:46;;;;;;;9.75;5.60;;;22.20;69.30;;;;;;3596444;39;20087;-83
2021/08/20 18:22:17;;;;;;;9.82;5.60;;;22.10;69.20;;;;;;3617415;39;20071;-83
2021/08/20 18:24:46;;;;;;;8.52;5.45;;;22.10;70.30;;;;;;3579922;40;20084;-83
2021/08/20 18:27:16;;;;;;;9.57;5.70;;;22.10;70.40;;;;;;3586086;40;20103;-82
2021/08/20 18:32:55;;;;;;;12.75;6.55;;;21.70;72.10;;;;;;3653206;22;20303;-82
2021/08/20 18:35:23;;;;;;;10.98;5.85;;;21.60;73.80;;;;;;3574706;40;20077;-84
2021/08/20 18:37:52;;;;;;;10.85;6.03;;;21.40;74.60;;;;;;3565161;40;20085;-84
2021/08/20 18:40:22;;;;;;;8.20;5.00;;;21.40;74.90;;;;;;3555735;40;20336;-84
2021/08/20 18:43:02;;;;;;;7.95;5.10;;;21.30;75.80;;;;;;3563391;40;20073;-84
2021/08/20 18:45:33;;;;;;;9.25;5.35;;;21.20;77.40;;;;;;3539104;40;20062;-83
2021/08/20 18:48:06;;;;;;;8.43;5.80;;;21.20;78.40;;;;;;3536858;40;20083;-85
2021/08/20 18:50:35;;;;;;;12.35;5.43;;;21.10;79.90;;;;;;3527597;40;20070;-83
2021/08/20 18:53:06;;;;;;;9.50;5.70;;;20.90;81.50;;;;;;3529730;40;20106;-84
2021/08/20 18:55:39;;;;;;;9.48;5.55;;;20.80;83.30;;;;;;3529717;40;20094;-85
2021/08/20 18:58:10;;;;;;;15.98;8.90;;;20.70;85.20;;;;;;3525495;40;20075;-83
2021/08/20 19:00:40;;;;;;;17.10;9.77;;;20.60;87.10;;;;;;3525144;40;20307;-86
2021/08/20 19:03:09;;;;;;;13.98;7.18;;;20.50;89.10;;;;;;3520223;40;20071;-85
2021/08/20 19:05:38;;;;;;;11.93;6.60;;;20.50;90.50;;;;;;3523063;40;20095;-86
2021/08/20 19:08:08;;;;;;;9.90;6.45;;;20.50;91.30;;;;;;3514241;40;20084;-85
2021/08/20 19:10:41;;;;;;;10.65;6.30;;;20.40;92.20;;;;;;3531691;40;20067;-83
2021/08/20 19:13:15;;;;;;;13.68;8.00;;;20.40;92.90;;;;;;3526403;40;20226;-84
2021/08/20 19:15:46;;;;;;;12.40;7.15;;;20.40;93.60;;;;;;3523331;40;20072;-85
2021/08/20 19:18:15;;;;;;;10.70;6.47;;;20.40;94.20;;;;;;3532089;40;20063;-83
2021/08/20 19:20:56;;;;;;;13.52;7.00;;;20.40;94.90;;;;;;3530791;40;20329;-89
2021/08/20 19:23:32;;;;;;;12.88;6.75;;;20.40;95.80;;;;;;3532480;40;20341;-86
2021/08/20 19:26:05;;;;;;;12.02;7.07;;;20.40;96.80;;;;;;3539775;40;20106;-83
2021/08/20 19:28:36;;;;;;;11.65;7.20;;;20.30;97.70;;;;;;3522682;40;20078;-83
2021/08/20 19:31:05;;;;;;;13.13;7.78;;;20.30;98.50;;;;;;3528431;40;20067;-83
2021/08/20 19:33:33;;;;;;;11.25;7.47;;;20.20;99.10;;;;;;3546830;40;20134;-83
2021/08/20 19:36:04;;;;;;;11.82;6.55;;;20.10;99.40;;;;;;3542938;40;20437;-84
2021/08/20 19:38:34;;;;;;;14.05;8.00;;;20.10;99.90;;;;;;3548761;40;20075;-84
2021/08/20 19:41:07;;;;;;;14.68;7.60;;;20.00;99.90;;;;;;3536751;40;20305;-83
2021/08/20 19:43:38;;;;;;;12.52;7.63;;;20.00;99.90;;;;;;3546851;40;20094;-83
2021/08/20 19:46:06;;;;;;;17.15;7.97;;;20.10;99.90;;;;;;3553595;40;20092;-84
2021/08/20 19:48:36;;;;;;;11.97;7.10;;;20.30;99.90;;;;;;3562068;40;20329;-84
2021/08/20 19:51:04;;;;;;;11.65;7.88;;;20.30;99.80;;;;;;3565303;40;20376;-84
2021/08/20 19:53:35;;;;;;;10.50;7.40;;;20.10;99.90;;;;;;3553484;40;20077;-82
2021/08/20 19:56:10;;;;;;;13.50;8.07;;;19.80;99.90;;;;;;3558311;40;20061;-83
2021/08/20 19:58:38;;;;;;;14.65;7.55;;;19.70;99.90;;;;;;3563041;40;20072;-82
2021/08/20 20:01:06;;;;;;;14.20;7.68;;;19.50;99.90;;;;;;3557014;40;20076;-84
2021/08/20 20:03:34;;;;;;;;;;;19.40;99.90;;;;;;3566711;40;20089;-83
2021/08/20 20:06:02;;;;;;;15.23;8.50;;;19.30;99.90;;;;;;3567122;40;19973;-82
2021/08/20 20:08:31;;;;;;;15.55;9.38;;;19.10;99.90;;;;;;3560829;40;20073;-82
2021/08/20 20:11:00;;;;;;;13.53;8.07;;;19.00;99.90;;;;;;3560204;40;20102;-83
2021/08/20 20:13:31;;;;;;;15.15;8.40;;;19.00;99.90;;;;;;3561189;40;20299;-82
2021/08/20 20:16:01;;;;;;;13.10;8.68;;;18.90;99.90;;;;;;3564578;40;20080;-82
2021/08/20 20:18:29;;;;;;;13.15;7.75;;;18.90;99.90;;;;;;3562006;40;20069;-84
2021/08/20 20:20:58;;;;;;;15.35;8.32;;;19.00;99.90;;;;;;3555499;40;20065;-85
2021/08/20 20:23:28;;;;;;;14.93;8.35;;;19.00;99.90;;;;;;3555260;40;20074;-83
2021/08/20 20:25:56;;;;;;;12.43;8.20;;;19.00;99.90;;;;;;3539091;40;20122;-83
2021/08/20 20:28:25;;;;;;;13.80;8.05;;;19.30;99.90;;;;;;3535825;40;20699;-83
2021/08/20 20:30:54;;;;;;;15.63;8.65;;;19.50;99.90;;;;;;3541783;40;20304;-84
2021/08/20 20:33:24;;;;;;;17.75;8.50;;;19.50;99.90;;;;;;3545148;40;20099;-85
2021/08/20 20:35:57;;;;;;;14.77;8.20;;;19.40;99.90;;;;;;3536818;40;20086;-86
2021/08/20 20:38:25;;;;;;;15.43;9.25;;;19.40;99.90;;;;;;3536974;40;20410;-82
2021/08/20 20:40:52;;;;;;;17.27;9.27;;;19.10;99.90;;;;;;3544172;40;20091;-85
2021/08/20 20:43:20;;;;;;;15.63;8.90;;;19.00;99.90;;;;;;3534690;40;20070;-84
2021/08/20 20:45:47;;;;;;;17.58;7.93;;;19.00;99.90;;;;;;3536990;40;20421;-83
2021/08/20 20:48:16;;;;;;;12.68;8.00;;;18.80;99.90;;;;;;3536688;40;20094;-84
2021/08/20 20:50:56;;;;;;;12.73;7.63;;;18.70;99.90;;;;;;3531080;40;20083;-84
2021/08/20 20:53:27;;;;;;;11.75;8.23;;;18.60;99.90;;;;;;3533984;40;20082;-85
2021/08/20 20:55:57;;;;;;;11.20;7.50;;;18.60;99.90;;;;;;3524290;40;20341;-83
2021/08/20 20:58:25;;;;;;;16.33;7.72;;;18.50;99.90;;;;;;3527372;40;20083;-85
2021/08/20 21:01:11;;;;;;;11.55;7.32;;;18.50;99.90;;;;;;3523080;40;20467;-84
2021/08/20 21:03:40;;;;;;;13.60;8.68;;;18.40;99.90;;;;;;3512679;40;20064;-83
2021/08/20 21:09:27;;;;;;;11.43;7.30;;;18.40;99.90;;;;;;3515939;40;20055;-83
2021/08/20 21:14:54;;;;;;;10.15;6.25;;;18.30;99.90;;;;;;3582299;40;20081;-86
2021/08/20 21:17:41;;;;;;;11.10;7.32;;;18.40;99.90;;;;;;3560206;40;20376;-85
2021/08/20 21:20:15;;;;;;;14.45;6.38;;;18.30;99.90;;;;;;3496955;41;20084;-85
2021/08/20 21:23:03;;;;;;;11.10;6.60;;;18.30;99.90;;;;;;3549251;40;20090;-85
2021/08/20 21:25:42;;;;;;;15.40;7.60;;;18.30;99.90;;;;;;3533185;40;20094;-85
2021/08/20 21:28:17;;;;;;;13.00;7.25;;;18.30;99.90;;;;;;3521035;40;20067;-86
2021/08/20 21:30:48;;;;;;;9.55;5.75;;;18.30;99.90;;;;;;3521158;40;20088;-88
2021/08/20 21:33:29;;;;;;;14.00;8.10;;;18.20;99.90;;;;;;3514939;40;20105;-86
2021/08/20 21:36:05;;;;;;;13.70;7.93;;;18.20;99.90;;;;;;3514066;40;20075;-86
2021/08/20 21:38:47;;;;;;;10.30;6.72;;;18.20;99.90;;;;;;3504976;40;20087;-85
2021/08/20 21:41:41;;;;;;;12.60;8.02;;;18.10;99.90;;;;;;3514872;40;20067;-87
2021/08/20 21:44:09;;;;;;;12.88;7.55;;;18.00;99.90;;;;;;3515700;40;20155;-85
2021/08/20 21:46:40;;;;;;;10.50;6.63;;;17.90;99.90;;;;;;3515886;40;20079;-87
2021/08/20 21:52:43;;;;;;;11.23;6.78;;;17.90;99.90;;;;;;3476916;41;20089;-86
2021/08/20 21:55:33;;;;;;;15.57;7.50;;;17.80;99.90;;;;;;3469515;41;20086;-87
2021/08/20 21:58:04;;;;;;;13.77;8.02;;;17.70;99.90;;;;;;3503516;40;20147;-86
2021/08/20 22:00:34;;;;;;;;;;;17.70;99.90;;;;;;3499424;41;20412;-87
2021/08/20 22:03:04;;;;;;;15.65;8.20;;;17.70;99.90;;;;;;3495350;41;20005;-85
2021/08/20 22:05:48;;;;;;;15.25;9.27;;;17.60;99.90;;;;;;3486649;41;20099;-85
2021/08/20 22:08:23;;;;;;;13.05;8.55;;;17.50;99.90;;;;;;3512591;40;20088;-83
2021/08/20 22:10:53;;;;;;;11.80;7.65;;;17.50;99.90;;;;;;3498048;41;20412;-88
2021/08/20 22:13:26;;;;;;;11.05;7.18;;;17.70;99.90;;;;;;3493983;41;20096;-88
2021/08/20 22:15:59;;;;;;;10.35;7.00;;;17.80;99.90;;;;;;3489618;41;20094;-87
2021/08/20 22:18:30;;;;;;;13.02;7.85;;;17.80;99.90;;;;;;3506271;41;20080;-86
2021/08/20 22:21:01;;;;;;;14.40;8.27;;;17.80;99.90;;;;;;3493962;41;20190;-86
2021/08/20 22:23:30;;;;;;;10.32;6.97;;;17.60;99.90;;;;;;3510340;41;20066;-85
2021/08/20 22:25:58;;;;;;;14.02;7.85;;;17.40;99.90;;;;;;3510758;40;20091;-85
2021/08/20 22:28:25;;;;;;;15.13;7.78;;;17.30;99.90;;;;;;3540389;40;20074;-86
2021/08/20 22:30:53;;;;;;;13.13;8.65;;;17.20;99.90;;;;;;3562942;40;20282;-85
2021/08/20 22:33:22;;;;;;;11.85;7.20;;;17.10;99.90;;;;;;3555325;40;20082;-86
2021/08/20 22:35:50;;;;;;;10.35;6.95;;;17.10;99.90;;;;;;3564097;40;20057;-86
2021/08/20 22:38:18;;;;;;;11.20;7.28;;;17.00;99.90;;;;;;3558806;40;20078;-86
2021/08/20 22:40:47;;;;;;;14.85;8.50;;;17.00;99.90;;;;;;3564382;40;20089;-86
2021/08/20 22:43:15;;;;;;;12.90;7.95;;;17.10;99.90;;;;;;3556264;40;20081;-86
2021/08/20 22:45:43;;;;;;;12.65;7.85;;;17.20;99.90;;;;;;3555197;40;20103;-87
2021/08/20 22:48:11;;;;;;;12.95;8.70;;;17.30;99.90;;;;;;3555433;40;20066;-87
2021/08/20 22:50:39;;;;;;;11.82;7.88;;;17.30;99.90;;;;;;3556443;40;20085;-85
2021/08/20 22:53:07;;;;;;;13.15;8.60;;;17.10;99.90;;;;;;3556555;40;20090;-85
2021/08/20 22:55:35;;;;;;;13.30;8.85;;;17.00;99.90;;;;;;3563530;40;20066;-83
2021/08/20 22:58:04;;;;;;;19.10;8.77;;;17.00;99.90;;;;;;3555002;40;20440;-85
2021/08/20 23:00:36;;;;;;;15.55;9.90;;;17.00;99.90;;;;;;3571193;40;20066;-86
2021/08/20 23:03:09;;;;;;;17.95;10.32;;;17.00;99.90;;;;;;3545652;40;20080;-85
2021/08/20 23:05:39;;;;;;;17.48;9.88;;;16.90;99.90;;;;;;3561422;40;20316;-86
2021/08/20 23:08:08;;;;;;;15.48;10.23;;;16.80;99.90;;;;;;3552421;40;20074;-83
2021/08/20 23:10:36;;;;;;;13.82;9.85;;;16.70;99.90;;;;;;3552078;40;20393;-84
2021/08/20 23:13:07;;;;;;;13.60;9.63;;;16.70;99.90;;;;;;3562637;40;20074;-85
2021/08/20 23:15:34;;;;;;;17.15;10.50;;;16.70;99.90;;;;;;3572013;40;20093;-85
2021/08/20 23:18:02;;;;;;;12.70;9.47;;;16.60;99.90;;;;;;3563928;40;20085;-85
2021/08/20 23:20:30;;;;;;;15.35;9.88;;;16.60;99.90;;;;;;3563725;40;20376;-84
2021/08/20 23:22:58;;;;;;;18.00;11.20;;;16.60;99.90;;;;;;3582610;40;20065;-85
2021/08/20 23:25:26;;;;;;;17.35;10.07;;;16.70;99.90;;;;;;3584581;40;20069;-86
2021/08/20 23:27:53;;;;;;;15.93;10.63;;;16.60;99.90;;;;;;3567062;40;20078;-86
2021/08/20 23:30:22;;;;;;;16.33;10.65;;;16.60;99.90;;;;;;3566856;40;20077;-85
2021/08/20 23:32:50;;;;;;;;;;;16.70;99.90;;;;;;3575543;40;20057;-87
2021/08/20 23:35:17;;;;;;;16.15;10.18;;;16.80;99.90;;;;;;3576089;40;19968;-87
2021/08/20 23:37:45;;;;;;;15.00;10.73;;;16.60;99.90;;;;;;3576105;40;20080;-87
2021/08/20 23:40:14;;;;;;;17.35;10.40;;;16.50;99.90;;;;;;3576417;40;20077;-86
2021/08/20 23:42:44;;;;;;;13.85;10.38;;;16.50;99.90;;;;;;3573032;40;20061;-85
2021/08/20 23:45:15;;;;;;;20.77;10.32;;;16.60;99.90;;;;;;3576708;40;20097;-85
2021/08/20 23:47:44;;;;;;;13.13;9.88;;;16.60;99.90;;;;;;3567813;40;20084;-84
2021/08/20 23:50:14;;;;;;;13.70;9.68;;;16.50;99.90;;;;;;3578450;40;20062;-83
2021/08/20 23:52:44;;;;;;;14.88;10.20;;;16.50;99.90;;;;;;3562998;40;20060;-84
2021/08/20 23:55:12;;;;;;;14.52;9.52;;;16.50;99.90;;;;;;3565694;40;20037;-84
2021/08/20 23:57:39;;;;;;;14.70;10.05;;;16.50;99.90;;;;;;3566002;40;20053;-84
